Time;durP1;ratioP1;P1;durP2;ratioP2;P2;SDS_P1;SDS_P2;PMS_P1;PMS_P2;Temp;Humidity;BMP_temperature;BMP_pressure;BME280_temperature;BME280_humidity;BME280_pressure;Samples;Min_cycle;Max_cycle;Signal;HPM_P1;HPM_P2
2021/12/24 00:01:27;;;;;;;10.20;6.13;;;9.80;1.00;;;;;;5132816;27;20253;-81
2021/12/24 00:03:55;;;;;;;6.67;5.33;;;;;;;;;;5131894;27;20199;-85
2021/12/24 00:06:22;;;;;;;8.97;5.67;;;9.80;1.00;;;;;;5132141;27;20216;-82
2021/12/24 00:08:50;;;;;;;7.17;5.37;;;9.80;1.00;;;;;;5131819;27;20667;-81
2021/12/24 00:11:17;;;;;;;5.53;5.03;;;9.80;1.00;;;;;;5132193;27;20196;-82
2021/12/24 00:13:47;;;;;;;7.30;4.97;;;9.80;1.00;;;;;;5131627;28;20200;-83
2021/12/24 00:16:21;;;;;;;6.90;5.97;;;9.80;1.00;;;;;;5132263;28;20200;-82
2021/12/24 00:18:54;;;;;;;8.00;5.03;;;9.80;1.00;;;;;;5132119;28;20295;-82
2021/12/24 00:35:11;;;;;;;8.50;4.83;;;;;;;;;;5132613;28;20238;-83
2021/12/24 00:37:42;;;;;;;8.43;6.17;;;9.70;1.00;;;;;;5132361;27;20257;-83
2021/12/24 00:40:17;;;;;;;7.13;5.73;;;9.70;1.00;;;;;;5132107;28;20208;-83
2021/12/24 00:42:46;;;;;;;8.67;6.00;;;9.70;1.00;;;;;;5132118;28;20652;-82
2021/12/24 00:45:15;;;;;;;8.60;6.90;;;9.70;1.00;;;;;;5135972;27;20652;-82
2021/12/24 00:47:43;;;;;;;10.80;6.50;;;9.70;1.00;;;;;;5135709;27;20619;-82
2021/12/24 00:50:14;;;;;;;9.50;6.33;;;9.70;1.00;;;;;;5136122;27;20646;-83
2021/12/24 00:52:49;;;;;;;9.10;6.13;;;9.70;1.00;;;;;;5135610;27;20689;-80
2021/12/24 00:55:17;;;;;;;7.77;5.83;;;9.70;1.00;;;;;;5135347;27;20789;-82
2021/12/24 00:57:46;;;;;;;7.13;5.93;;;9.70;1.00;;;;;;5134846;27;20252;-81
2021/12/24 01:00:16;;;;;;;6.13;5.50;;;9.70;1.00;;;;;;5135620;27;20212;-83
2021/12/24 01:02:44;;;;;;;7.37;5.17;;;9.70;1.00;;;;;;5135575;27;20737;-84
2021/12/24 01:05:12;;;;;;;7.93;6.63;;;9.70;1.00;;;;;;5135949;27;20261;-88
2021/12/24 01:07:39;;;;;;;5.20;4.33;;;9.70;1.00;;;;;;5116827;27;20262;-81
2021/12/24 01:10:09;;;;;;;5.37;4.87;;;9.70;1.00;;;;;;5095340;28;20218;-87
2021/12/24 01:12:37;;;;;;;6.07;5.07;;;9.70;1.00;;;;;;5095001;28;20202;-79
2021/12/24 01:15:05;;;;;;;7.80;5.73;;;9.70;1.00;;;;;;5093911;28;20225;-81
2021/12/24 01:17:41;;;;;;;10.07;4.53;;;9.80;1.00;;;;;;5093979;28;20201;-80
2021/12/24 01:20:18;;;;;;;6.43;5.00;;;9.70;1.00;;;;;;5094299;28;20258;-81
2021/12/24 01:25:33;;;;;;;6.33;4.70;;;9.80;1.00;;;;;;5094067;28;20240;-79
2021/12/24 01:28:28;;;;;;;8.03;4.57;;;9.80;1.00;;;;;;5093306;28;20286;-78
2021/12/24 01:39:15;;;;;;;8.93;4.87;;;9.80;1.00;;;;;;5094067;28;20192;-81
2021/12/24 01:44:30;;;;;;;6.43;5.03;;;9.90;1.00;;;;;;5094122;28;20554;-80
2021/12/24 01:47:00;;;;;;;6.93;5.77;;;9.90;1.00;;;;;;5093152;28;20197;-78
2021/12/24 01:49:27;;;;;;;6.00;4.50;;;9.90;1.00;;;;;;5094482;28;20263;-86
2021/12/24 01:51:54;;;;;;;5.53;4.53;;;9.90;1.00;;;;;;5094406;28;20202;-82
2021/12/24 01:54:22;;;;;;;7.97;4.90;;;9.90;1.00;;;;;;5093939;28;20294;-83
2021/12/24 01:56:50;;;;;;;7.67;5.93;;;9.90;1.00;;;;;;5092849;28;20275;-78
2021/12/24 01:59:18;;;;;;;5.83;4.47;;;9.90;1.00;;;;;;5093327;28;20210;-77
2021/12/24 02:01:45;;;;;;;7.43;5.70;;;9.90;1.00;;;;;;5093105;28;20201;-84
2021/12/24 02:04:14;;;;;;;7.03;6.30;;;9.90;1.00;;;;;;5093574;28;20255;-81
2021/12/24 02:06:42;;;;;;;5.90;4.57;;;9.90;1.00;;;;;;5075430;28;20312;-82
2021/12/24 02:09:10;;;;;;;8.53;5.33;;;9.90;1.00;;;;;;5093268;28;20288;-80
2021/12/24 02:11:38;;;;;;;7.57;6.53;;;9.90;1.00;;;;;;5058950;28;20353;-80
2021/12/24 02:14:10;;;;;;;8.10;5.90;;;10.00;1.00;;;;;;5093069;28;20259;-80
2021/12/24 02:28:25;;;;;;;8.40;6.37;;;10.00;1.00;;;;;;5034482;28;20217;-81
2021/12/24 02:30:53;;;;;;;10.20;7.67;;;10.00;1.00;;;;;;5092335;28;20628;-80
2021/12/24 02:33:20;;;;;;;7.57;5.37;;;10.00;1.00;;;;;;5092648;28;20296;-79
2021/12/24 02:35:47;;;;;;;8.00;5.27;;;10.00;1.00;;;;;;5092416;28;20255;-80
2021/12/24 02:38:16;;;;;;;7.53;6.57;;;10.00;1.00;;;;;;5092588;28;20214;-76
2021/12/24 02:40:43;;;;;;;7.37;6.27;;;10.00;1.00;;;;;;5092400;28;20197;-76
2021/12/24 02:43:14;;;;;;;10.80;6.77;;;10.00;1.00;;;;;;5092552;28;20266;-76
2021/12/24 02:45:43;;;;;;;7.03;5.83;;;10.00;1.00;;;;;;5092500;28;20256;-76
2021/12/24 02:48:35;;;;;;;7.67;6.10;;;9.90;1.00;;;;;;5092374;28;20201;-74
2021/12/24 02:53:58;;;;;;;7.90;6.40;;;9.90;1.00;;;;;;5091497;28;20196;-74
2021/12/24 02:56:29;;;;;;;9.87;6.90;;;10.00;1.00;;;;;;5092113;28;20453;-75
2021/12/24 02:58:57;;;;;;;10.43;6.50;;;10.00;1.00;;;;;;5091760;28;20286;-75
2021/12/24 03:01:26;;;;;;;8.80;5.93;;;9.90;1.00;;;;;;5092035;28;20259;-74
2021/12/24 03:03:53;;;;;;;8.33;6.53;;;10.00;1.00;;;;;;5091632;28;20247;-75
2021/12/24 03:06:23;;;;;;;9.73;6.53;;;10.00;1.00;;;;;;5091432;28;20213;-75
2021/12/24 03:08:51;;;;;;;11.37;7.33;;;10.00;1.00;;;;;;5091134;28;20278;-79
2021/12/24 03:11:19;;;;;;;10.20;8.03;;;10.00;1.00;;;;;;5092222;28;20201;-78
2021/12/24 03:13:47;;;;;;;8.87;7.13;;;10.00;1.00;;;;;;5091789;28;20259;-79
2021/12/24 03:16:14;;;;;;;9.53;7.57;;;10.00;1.00;;;;;;5091699;28;20233;-79
2021/12/24 03:18:42;;;;;;;10.00;7.43;;;10.00;1.00;;;;;;5091979;28;20201;-80
2021/12/24 03:21:14;;;;;;;9.80;6.83;;;10.00;1.00;;;;;;5091999;28;20577;-79
2021/12/24 03:23:44;;;;;;;9.97;7.37;;;10.00;1.00;;;;;;5091830;28;20209;-79
2021/12/24 03:26:15;;;;;;;8.93;6.87;;;10.00;1.00;;;;;;5092026;28;20599;-80
2021/12/24 03:28:43;;;;;;;8.70;6.70;;;10.10;1.00;;;;;;5091260;28;20198;-80
2021/12/24 03:31:11;;;;;;;9.97;7.90;;;10.10;1.00;;;;;;5091863;28;20201;-79
2021/12/24 03:33:39;;;;;;;9.23;7.63;;;10.10;1.00;;;;;;5091961;28;20664;-80
2021/12/24 03:36:08;;;;;;;12.97;6.80;;;10.10;1.00;;;;;;5091804;28;20246;-80
2021/12/24 03:38:36;;;;;;;10.90;6.80;;;10.10;1.00;;;;;;5092057;28;20209;-77
2021/12/24 03:41:04;;;;;;;11.40;7.80;;;10.10;1.00;;;;;;5090937;28;20206;-80
2021/12/24 03:43:33;;;;;;;10.53;7.87;;;10.10;1.00;;;;;;5091618;28;20248;-80
2021/12/24 03:46:04;;;;;;;10.40;8.07;;;10.10;1.00;;;;;;5090811;28;20212;-80
2021/12/24 03:48:45;;;;;;;10.30;7.73;;;10.10;1.00;;;;;;5091449;28;20206;-80
2021/12/24 03:51:32;;;;;;;11.03;7.93;;;10.10;1.00;;;;;;5091275;28;20233;-76
2021/12/24 03:56:45;;;;;;;12.73;8.47;;;10.10;1.00;;;;;;5090816;28;20239;-75
2021/12/24 03:59:13;;;;;;;12.37;8.33;;;10.10;1.00;;;;;;5091044;28;20542;-75
2021/12/24 04:01:41;;;;;;;13.83;9.67;;;10.10;1.00;;;;;;5091053;28;20201;-75
2021/12/24 04:04:09;;;;;;;11.17;8.03;;;10.10;1.00;;;;;;5091353;28;20281;-76
2021/12/24 04:06:36;;;;;;;15.73;9.07;;;10.10;1.00;;;;;;5091121;28;20225;-81
2021/12/24 04:09:06;;;;;;;10.50;9.00;;;10.10;1.00;;;;;;5090679;28;20254;-80
2021/12/24 04:11:34;;;;;;;11.17;8.23;;;10.10;1.00;;;;;;5091137;28;20209;-80
2021/12/24 04:14:01;;;;;;;12.43;8.83;;;10.00;1.00;;;;;;5090959;28;20205;-82
2021/12/24 04:16:29;;;;;;;11.43;8.37;;;10.10;1.00;;;;;;5091522;28;20291;-83
2021/12/24 04:19:13;;;;;;;11.87;8.67;;;10.10;1.00;;;;;;5090910;28;20209;-82
2021/12/24 04:27:10;;;;;;;14.90;8.97;;;10.10;1.00;;;;;;5090941;28;20200;-78
2021/12/24 04:29:37;;;;;;;12.50;8.77;;;10.10;1.00;;;;;;5090810;28;20202;-75
2021/12/24 04:32:13;;;;;;;10.70;8.77;;;10.00;1.00;;;;;;5090195;28;20668;-76
2021/12/24 04:34:44;;;;;;;14.63;8.53;;;10.00;1.00;;;;;;5090601;28;20204;-76
2021/12/24 04:50:58;;;;;;;16.53;9.87;;;10.00;1.00;;;;;;5090526;28;20683;-79
2021/12/24 04:51:15;;;;;;;13.03;10.07;;;9.90;1.00;;;;;;5090197;28;20200;-78
2021/12/24 05:02:09;;;;;;;11.67;9.67;;;9.90;1.00;;;;;;5090165;28;20666;-78
2021/12/24 05:04:47;;;;;;;13.77;9.27;;;9.90;1.00;;;;;;5090689;28;20570;-78
2021/12/24 05:07:35;;;;;;;11.00;8.97;;;9.90;1.00;;;;;;5090779;28;20262;-79
2021/12/24 05:10:03;;;;;;;13.40;10.50;;;9.90;1.00;;;;;;5090380;28;20672;-79
2021/12/24 05:12:34;;;;;;;12.63;8.57;;;9.90;1.00;;;;;;5090647;28;20724;-80
2021/12/24 05:15:01;;;;;;;15.20;9.47;;;9.90;1.00;;;;;;5090182;28;20668;-79
2021/12/24 05:17:34;;;;;;;12.80;9.30;;;9.90;1.00;;;;;;5090298;28;20688;-79
2021/12/24 05:22:47;;;;;;;14.70;9.80;;;9.80;1.00;;;;;;5089988;28;20201;-79
2021/12/24 05:25:14;;;;;;;14.87;9.83;;;9.80;1.00;;;;;;5090443;28;20251;-79
2021/12/24 05:27:42;;;;;;;13.53;8.93;;;9.90;1.00;;;;;;5090461;28;20259;-76
2021/12/24 05:30:11;;;;;;;13.37;8.97;;;9.80;1.00;;;;;;5090886;28;20210;-79
2021/12/24 05:32:38;;;;;;;14.97;10.47;;;9.90;1.00;;;;;;5094255;28;20660;-81
2021/12/24 05:35:07;;;;;;;15.40;11.07;;;9.90;1.00;;;;;;5093752;28;20198;-79
2021/12/24 05:37:34;;;;;;;17.53;10.60;;;9.90;1.00;;;;;;5094294;28;20714;-82
2021/12/24 05:40:01;;;;;;;13.20;10.60;;;9.90;1.00;;;;;;5093583;28;20516;-76
2021/12/24 05:42:31;;;;;;;13.17;9.57;;;9.80;1.00;;;;;;5093797;28;20258;-77
2021/12/24 05:45:03;;;;;;;16.03;10.23;;;9.90;1.00;;;;;;5076176;28;20209;-79
2021/12/24 05:47:31;;;;;;;13.17;10.10;;;9.80;1.00;;;;;;5076220;28;20687;-79
2021/12/24 05:49:58;;;;;;;14.63;9.77;;;9.90;1.00;;;;;;5093421;28;20322;-78
2021/12/24 05:52:28;;;;;;;15.60;10.60;;;9.90;1.00;;;;;;5093851;28;20208;-82
2021/12/24 05:54:55;;;;;;;16.87;11.30;;;9.90;1.00;;;;;;5093464;28;20201;-80
2021/12/24 05:57:22;;;;;;;18.47;11.97;;;9.90;1.00;;;;;;5093210;28;20274;-83
2021/12/24 05:59:49;;;;;;;14.43;9.13;;;9.90;1.00;;;;;;5093697;28;20197;-82
2021/12/24 06:02:16;;;;;;;16.70;10.40;;;9.90;1.00;;;;;;5092985;28;20201;-81
2021/12/24 06:04:43;;;;;;;15.70;9.83;;;9.90;1.00;;;;;;5093077;28;20202;-78
2021/12/24 06:07:10;;;;;;;13.87;9.80;;;9.90;1.00;;;;;;5092865;28;20213;-76
2021/12/24 06:09:39;;;;;;;16.33;11.70;;;9.90;1.00;;;;;;5093340;28;20578;-77
2021/12/24 06:12:07;;;;;;;14.87;10.27;;;9.90;1.00;;;;;;5093119;28;20201;-77
2021/12/24 06:14:34;;;;;;;15.30;9.80;;;9.90;1.00;;;;;;5093102;28;20267;-77
2021/12/24 06:17:03;;;;;;;15.97;10.17;;;9.90;1.00;;;;;;5092438;28;20241;-76
2021/12/24 06:19:30;;;;;;;14.63;10.70;;;9.90;1.00;;;;;;5092962;28;20205;-77
2021/12/24 06:21:58;;;;;;;17.43;11.40;;;9.90;1.00;;;;;;5092344;28;20202;-76
2021/12/24 06:24:25;;;;;;;14.23;9.27;;;9.90;1.00;;;;;;5092639;28;20231;-76
2021/12/24 06:26:54;;;;;;;14.47;8.87;;;10.00;1.00;;;;;;5092604;28;20206;-76
2021/12/24 06:29:21;;;;;;;13.97;8.77;;;9.90;1.00;;;;;;5092622;28;20699;-76
2021/12/24 06:31:49;;;;;;;12.33;9.17;;;9.90;1.00;;;;;;5092198;28;20629;-76
2021/12/24 06:34:16;;;;;;;13.50;8.97;;;9.90;1.00;;;;;;5092654;28;20202;-76
2021/12/24 06:36:44;;;;;;;17.67;9.67;;;9.90;1.00;;;;;;5092075;28;20225;-77
2021/12/24 06:39:12;;;;;;;14.23;9.33;;;9.90;1.00;;;;;;5092715;28;20237;-76
2021/12/24 06:41:39;;;;;;;14.10;9.17;;;9.90;1.00;;;;;;5092463;28;20201;-75
2021/12/24 06:44:10;;;;;;;14.90;9.37;;;9.90;1.00;;;;;;5092655;28;20205;-76
2021/12/24 06:46:37;;;;;;;13.70;9.23;;;9.90;1.00;;;;;;5092521;28;20209;-76
2021/12/24 06:49:05;;;;;;;15.57;9.57;;;9.90;1.00;;;;;;5092444;28;20254;-76
2021/12/24 06:51:32;;;;;;;12.33;10.50;;;9.90;1.00;;;;;;5092230;28;20205;-76
2021/12/24 06:53:59;;;;;;;13.70;9.27;;;9.90;1.00;;;;;;5094786;27;20622;-75
2021/12/24 06:56:26;;;;;;;12.73;10.27;;;9.90;1.00;;;;;;5093829;28;20295;-75
2021/12/24 06:58:53;;;;;;;14.23;10.30;;;9.80;1.00;;;;;;5110099;28;20205;-76
2021/12/24 07:01:22;;;;;;;13.30;9.63;;;9.90;1.00;;;;;;5106014;28;20250;-77
2021/12/24 07:03:48;;;;;;;16.77;10.10;;;9.90;1.00;;;;;;5111418;28;20639;-76
2021/12/24 07:06:15;;;;;;;15.70;9.10;;;9.90;1.00;;;;;;5112246;28;20274;-78
2021/12/24 07:08:43;;;;;;;13.57;9.37;;;9.90;1.00;;;;;;5111820;28;20616;-78
2021/12/24 07:11:10;;;;;;;12.47;8.73;;;9.90;1.00;;;;;;5112232;28;20254;-76
2021/12/24 07:13:37;;;;;;;20.67;9.10;;;9.90;1.00;;;;;;5110894;28;20204;-75
2021/12/24 07:16:04;;;;;;;12.80;10.27;;;9.90;1.00;;;;;;5111572;28;20247;-76
2021/12/24 07:18:33;;;;;;;12.13;8.50;;;9.90;1.00;;;;;;5111698;28;20213;-76
2021/12/24 07:21:00;;;;;;;15.93;10.07;;;9.80;1.00;;;;;;5111724;28;20266;-75
2021/12/24 07:23:27;;;;;;;17.73;9.73;;;9.80;1.00;;;;;;5111550;28;20205;-75
2021/12/24 07:25:53;;;;;;;11.27;9.47;;;9.90;1.00;;;;;;5111100;28;20678;-75
2021/12/24 07:28:20;;;;;;;12.13;7.80;;;9.80;1.00;;;;;;5111402;28;20625;-75
2021/12/24 07:30:47;;;;;;;14.30;10.77;;;9.80;1.00;;;;;;5110310;28;20614;-75
2021/12/24 07:33:15;;;;;;;13.17;10.27;;;9.80;1.00;;;;;;5111670;28;20208;-76
2021/12/24 07:35:44;;;;;;;14.13;8.93;;;9.80;1.00;;;;;;5108298;27;20201;-74
2021/12/24 07:38:13;;;;;;;15.07;9.47;;;9.80;1.00;;;;;;5111589;28;20250;-74
2021/12/24 07:40:41;;;;;;;12.83;8.93;;;9.80;1.00;;;;;;5111520;28;20209;-74
2021/12/24 07:43:08;;;;;;;12.70;8.63;;;9.80;1.00;;;;;;5111346;28;20676;-76
2021/12/24 07:45:38;;;;;;;11.80;8.93;;;9.80;1.00;;;;;;5111388;28;20201;-75
2021/12/24 07:48:12;;;;;;;12.40;8.13;;;9.80;1.00;;;;;;5111337;28;20201;-73
2021/12/24 07:53:26;;;;;;;13.63;9.43;;;9.90;1.00;;;;;;5110441;28;20681;-76
2021/12/24 07:55:56;;;;;;;8.77;7.87;;;9.90;1.00;;;;;;5097399;28;20261;-77
2021/12/24 07:58:23;;;;;;;13.60;9.40;;;9.90;1.00;;;;;;5109713;28;20600;-77
2021/12/24 08:00:51;;;;;;;14.23;8.20;;;9.90;1.00;;;;;;5109300;28;20296;-77
2021/12/24 08:03:19;;;;;;;10.57;7.70;;;9.90;1.00;;;;;;5110116;28;20303;-78
2021/12/24 08:05:48;;;;;;;13.63;9.33;;;9.90;1.00;;;;;;5110333;28;20258;-77
2021/12/24 08:08:16;;;;;;;10.77;8.13;;;10.00;1.00;;;;;;5110597;28;20640;-72
2021/12/24 08:10:44;;;;;;;11.07;8.87;;;10.00;1.00;;;;;;5110514;28;20295;-72
2021/12/24 08:13:11;;;;;;;11.03;8.73;;;10.00;1.00;;;;;;5108955;28;20200;-73
2021/12/24 08:15:38;;;;;;;12.50;9.27;;;10.10;1.00;;;;;;5110143;28;20618;-76
2021/12/24 08:18:05;;;;;;;12.47;8.33;;;10.10;1.00;;;;;;5110474;28;20228;-74
2021/12/24 08:20:32;;;;;;;12.73;9.70;;;10.10;1.00;;;;;;5110457;28;20208;-75
2021/12/24 08:22:59;;;;;;;12.23;9.17;;;10.10;1.00;;;;;;5109967;28;20201;-82
2021/12/24 08:25:26;;;;;;;11.77;8.47;;;10.00;1.00;;;;;;5109927;28;20258;-76
2021/12/24 08:27:56;;;;;;;12.13;8.53;;;10.00;1.00;;;;;;5110499;28;20253;-82
2021/12/24 08:30:24;;;;;;;11.97;8.60;;;10.00;1.00;;;;;;5111074;28;20201;-80
2021/12/24 08:32:51;;;;;;;12.77;9.30;;;10.00;1.00;;;;;;5108533;28;20209;-83
2021/12/24 08:35:21;;;;;;;13.63;9.30;;;10.00;1.00;;;;;;5111488;28;20201;-82
2021/12/24 08:37:49;;;;;;;13.33;8.13;;;10.00;1.00;;;;;;5109992;28;20734;-80
2021/12/24 08:40:16;;;;;;;11.57;7.90;;;10.00;1.00;;;;;;5110439;28;20580;-78
2021/12/24 08:42:43;;;;;;;13.37;8.73;;;10.00;1.00;;;;;;5110256;28;20196;-78
2021/12/24 08:45:13;;;;;;;11.33;8.17;;;10.10;1.00;;;;;;5111280;28;20655;-85
2021/12/24 08:47:40;;;;;;;10.60;8.40;;;10.10;1.00;;;;;;5111097;28;20200;-87
2021/12/24 08:50:10;;;;;;;13.13;8.17;;;10.10;1.00;;;;;;5092886;28;20205;-80
2021/12/24 08:52:37;;;;;;;12.13;7.93;;;10.30;1.00;;;;;;5111591;28;20204;-81
2021/12/24 08:55:05;;;;;;;11.40;7.60;;;10.30;1.00;;;;;;5110957;28;20254;-79
2021/12/24 08:57:32;;;;;;;12.17;8.63;;;10.40;1.00;;;;;;5110979;28;20289;-79
2021/12/24 08:59:59;;;;;;;9.73;6.87;;;10.40;1.00;;;;;;5110950;28;20208;-84
2021/12/24 09:02:28;;;;;;;11.27;6.33;;;10.40;1.00;;;;;;5110637;28;20200;-83
2021/12/24 09:04:55;;;;;;;10.27;7.67;;;10.40;1.00;;;;;;5113994;28;20201;-81
2021/12/24 09:07:22;;;;;;;9.43;6.50;;;10.40;1.00;;;;;;5114972;28;20710;-79
2021/12/24 09:09:49;;;;;;;9.13;7.40;;;10.50;1.00;;;;;;5114603;28;20336;-78
2021/12/24 09:12:16;;;;;;;10.37;8.67;;;10.60;1.00;;;;;;5113772;28;20262;-81
2021/12/24 09:14:43;;;;;;;9.10;7.37;;;10.50;1.00;;;;;;5096433;28;20200;-87
2021/12/24 09:17:10;;;;;;;9.10;7.33;;;10.60;1.00;;;;;;5115712;28;20221;-88
2021/12/24 09:19:45;;;;;;;10.27;7.67;;;10.60;1.00;;;;;;5112039;28;20690;-86
2021/12/24 09:22:16;;;;;;;8.63;7.03;;;10.60;1.00;;;;;;5108538;28;20200;-78
2021/12/24 09:24:44;;;;;;;10.40;8.17;;;10.60;1.00;;;;;;5112175;28;20213;-77
2021/12/24 09:27:11;;;;;;;11.37;7.67;;;10.60;1.00;;;;;;5113325;28;20213;-78
2021/12/24 09:29:38;;;;;;;7.90;6.63;;;10.70;1.00;;;;;;5113383;28;20269;-77
2021/12/24 09:32:06;;;;;;;9.20;6.90;;;10.70;1.00;;;;;;5112251;28;20205;-82
2021/12/24 09:34:33;;;;;;;11.13;7.83;;;10.70;1.00;;;;;;5110831;28;20202;-78
2021/12/24 09:37:01;;;;;;;7.83;6.67;;;10.90;1.00;;;;;;5105378;28;20708;-82
2021/12/24 09:39:28;;;;;;;11.93;7.03;;;11.00;1.00;;;;;;5099244;28;20254;-83
2021/12/24 09:41:55;;;;;;;9.37;6.13;;;11.00;1.00;;;;;;5101085;28;20270;-79
2021/12/24 09:44:22;;;;;;;12.03;7.97;;;11.00;1.00;;;;;;5113933;28;20257;-78
2021/12/24 09:46:49;;;;;;;9.63;7.53;;;10.90;1.00;;;;;;5113246;28;20310;-77
2021/12/24 09:49:17;;;;;;;11.03;7.17;;;10.90;1.00;;;;;;5112580;28;20581;-80
2021/12/24 09:51:46;;;;;;;10.10;7.50;;;10.70;1.00;;;;;;5112688;28;20201;-78
2021/12/24 09:54:16;;;;;;;12.67;9.23;;;10.70;1.00;;;;;;5113237;28;20250;-81
2021/12/24 09:56:44;;;;;;;8.03;6.60;;;10.90;1.00;;;;;;5110031;28;20265;-83
2021/12/24 09:59:12;;;;;;;11.27;6.80;;;10.90;1.00;;;;;;5111962;28;20216;-79
2021/12/24 10:01:42;;;;;;;9.87;8.27;;;11.00;1.00;;;;;;5111349;28;20205;-83
2021/12/24 10:04:12;;;;;;;9.53;8.03;;;11.20;1.00;;;;;;5112793;28;20288;-77
2021/12/24 10:06:48;;;;;;;8.53;6.97;;;11.40;1.00;;;;;;5112480;28;20673;-77
2021/12/24 10:09:17;;;;;;;9.83;6.70;;;11.40;1.00;;;;;;5104133;28;20728;-76
2021/12/24 10:11:49;;;;;;;9.17;8.27;;;12.10;1.00;;;;;;5105198;28;20681;-76
2021/12/24 10:14:19;;;;;;;9.57;7.77;;;12.50;1.00;;;;;;5103533;28;20209;-76
2021/12/24 10:16:49;;;;;;;9.20;7.27;;;12.00;1.00;;;;;;5115874;27;20201;-78
2021/12/24 10:19:17;;;;;;;9.73;7.30;;;11.40;1.00;;;;;;5109585;28;20255;-77
2021/12/24 10:21:45;;;;;;;9.80;7.57;;;11.70;1.00;;;;;;5112259;28;20201;-76
2021/12/24 10:24:15;;;;;;;10.60;6.90;;;11.90;1.00;;;;;;5112839;28;20213;-79
2021/12/24 10:26:48;;;;;;;10.20;7.23;;;11.90;1.00;;;;;;5113022;28;20201;-75
2021/12/24 10:29:17;;;;;;;9.00;6.93;;;11.90;1.00;;;;;;5113148;27;20197;-76
2021/12/24 10:31:47;;;;;;;10.77;6.83;;;12.40;1.00;;;;;;5131021;27;20196;-75
2021/12/24 10:34:20;;;;;;;9.82;8.32;;;12.40;1.00;;;;;;5115073;27;20656;-77
2021/12/24 10:37:05;;;;;;;9.63;7.22;;;12.80;1.00;;;;;;5119904;27;20241;-74
2021/12/24 10:39:36;;;;;;;9.37;6.73;;;12.60;1.00;;;;;;5111613;27;20675;-77
2021/12/24 10:42:08;;;;;;;9.13;6.87;;;12.90;1.00;;;;;;5106817;28;20246;-76
2021/12/24 10:44:38;;;;;;;8.15;6.38;;;13.00;1.00;;;;;;5105217;28;20206;-77
2021/12/24 10:47:12;;;;;;;11.35;7.78;;;12.40;1.00;;;;;;5106082;28;20205;-76
2021/12/24 10:55:26;;;;;;;8.05;6.60;;;12.20;1.00;;;;;;5092277;28;20212;-75
2021/12/24 10:57:56;;;;;;;8.95;6.97;;;12.30;1.00;;;;;;5096871;28;20294;-76
2021/12/24 11:00:25;;;;;;;8.73;6.00;;;12.50;1.00;;;;;;5112590;28;20207;-75
2021/12/24 11:02:55;;;;;;;14.18;8.52;;;12.10;1.00;;;;;;5100832;28;20213;-78
2021/12/24 11:05:38;;;;;;;10.32;5.40;;;12.20;1.00;;;;;;5100695;28;20696;-78
2021/12/24 11:08:08;;;;;;;10.37;6.13;;;12.20;1.00;;;;;;5111222;28;20734;-77
2021/12/24 11:10:38;;;;;;;8.02;6.32;;;11.90;1.00;;;;;;5109227;28;20261;-80
2021/12/24 11:13:11;;;;;;;8.43;5.72;;;12.20;1.00;;;;;;5094122;28;20288;-77
2021/12/24 11:15:42;;;;;;;8.33;6.33;;;12.10;1.00;;;;;;5097988;28;20216;-78
2021/12/24 11:18:14;;;;;;;12.52;7.80;;;12.10;1.00;;;;;;5095951;28;20266;-76
2021/12/24 11:20:42;;;;;;;8.00;6.03;;;12.10;1.00;;;;;;5092893;28;20211;-76
2021/12/24 11:23:11;;;;;;;9.00;5.97;;;12.20;1.00;;;;;;5105863;27;20244;-75
2021/12/24 11:25:40;;;;;;;8.20;6.43;;;12.10;1.00;;;;;;5104686;27;20212;-79
2021/12/24 11:28:10;;;;;;;8.00;5.60;;;12.10;1.00;;;;;;5105857;27;20674;-87
2021/12/24 11:30:39;;;;;;;9.27;5.80;;;12.00;1.00;;;;;;5117657;27;20624;-83
2021/12/24 11:33:07;;;;;;;10.53;6.60;;;12.10;1.00;;;;;;5112454;27;20209;-80
2021/12/24 11:35:34;;;;;;;11.83;7.83;;;12.30;1.00;;;;;;5113183;27;20605;-80
2021/12/24 11:38:02;;;;;;;8.57;6.50;;;12.50;1.00;;;;;;5121967;27;20220;-78
2021/12/24 11:40:30;;;;;;;9.10;6.85;;;12.70;1.00;;;;;;5108241;27;20648;-80
2021/12/24 11:43:02;;;;;;;8.20;5.93;;;13.00;1.00;;;;;;5094702;27;20288;-81
2021/12/24 11:45:33;;;;;;;9.15;7.00;;;13.20;1.00;;;;;;5094366;28;20203;-81
2021/12/24 11:48:02;;;;;;;10.23;6.78;;;12.60;1.00;;;;;;5105031;28;20752;-80
2021/12/24 11:50:30;;;;;;;10.30;7.65;;;12.20;1.00;;;;;;5097851;27;20288;-76
2021/12/24 11:53:00;;;;;;;10.25;7.18;;;11.90;1.00;;;;;;5095660;28;20201;-78
2021/12/24 11:55:34;;;;;;;9.98;6.93;;;11.90;1.00;;;;;;5103484;28;20205;-81
2021/12/24 11:58:03;;;;;;;9.98;6.28;;;12.00;1.00;;;;;;5097959;28;20228;-80
2021/12/24 12:00:35;;;;;;;7.97;6.57;;;12.10;1.00;;;;;;5096822;28;20232;-76
2021/12/24 12:03:02;;;;;;;8.18;6.10;;;12.40;1.00;;;;;;5093302;28;20220;-77
2021/12/24 12:05:33;;;;;;;7.85;6.30;;;11.60;1.00;;;;;;5100169;28;20742;-77
2021/12/24 12:08:40;;;;;;;9.52;6.18;;;12.50;1.00;;;;;;5100967;28;20685;-76
2021/12/24 12:11:20;;;;;;;7.60;5.83;;;12.20;1.00;;;;;;5107098;28;20204;-76
2021/12/24 12:13:57;;;;;;;8.63;5.10;;;12.10;1.00;;;;;;5105875;28;20279;-78
2021/12/24 12:16:27;;;;;;;9.18;5.63;;;12.10;1.00;;;;;;5110034;28;20689;-77
2021/12/24 12:19:14;;;;;;;9.10;6.27;;;12.30;1.00;;;;;;5099602;28;20220;-81
2021/12/24 12:21:43;;;;;;;9.93;6.50;;;12.30;1.00;;;;;;5107799;28;20662;-76
2021/12/24 12:27:00;;;;;;;10.40;6.87;;;12.40;1.00;;;;;;5110139;28;20197;-77
2021/12/24 12:29:33;;;;;;;9.77;6.37;;;12.50;1.00;;;;;;5110357;28;20283;-77
2021/12/24 12:32:27;;;;;;;11.23;7.07;;;12.40;1.00;;;;;;5098345;28;20205;-76
2021/12/24 12:35:00;;;;;;;7.95;6.03;;;12.20;1.00;;;;;;5108967;28;20204;-76
2021/12/24 12:37:30;;;;;;;8.07;6.30;;;12.30;1.00;;;;;;5097722;28;20636;-81
2021/12/24 12:39:58;;;;;;;9.27;6.35;;;12.20;1.00;;;;;;5108939;28;20636;-80
2021/12/24 12:43:16;;;;;;;10.05;6.28;;;12.30;1.00;;;;;;5102961;28;20205;-81
2021/12/24 12:46:04;;;;;;;12.40;8.00;;;12.20;1.00;;;;;;5072859;28;20845;-80
2021/12/24 12:48:51;;;;;;;9.25;7.50;;;12.10;1.00;;;;;;5111197;27;20212;-79
2021/12/24 12:51:20;;;;;;;8.33;6.43;;;12.00;1.00;;;;;;5111586;27;20204;-81
2021/12/24 12:53:50;;;;;;;10.60;8.07;;;12.30;1.00;;;;;;5107960;27;20212;-83
2021/12/24 12:56:20;;;;;;;9.82;7.70;;;12.40;1.00;;;;;;5120520;27;20211;-83
2021/12/24 12:58:49;;;;;;;11.38;7.63;;;12.30;1.00;;;;;;5115112;27;20231;-78
2021/12/24 13:01:18;;;;;;;7.75;6.53;;;12.30;1.00;;;;;;5118205;27;20212;-79
2021/12/24 13:04:17;;;;;;;10.83;7.50;;;12.20;1.00;;;;;;5108159;27;20564;-78
2021/12/24 13:07:04;;;;;;;10.20;6.97;;;12.40;1.00;;;;;;5065554;28;20260;-79
2021/12/24 13:09:36;;;;;;;8.67;6.47;;;12.40;1.00;;;;;;5110989;27;20256;-77
2021/12/24 13:12:04;;;;;;;9.27;7.20;;;12.60;1.00;;;;;;5115398;27;20208;-79
2021/12/24 13:14:35;;;;;;;8.20;6.82;;;12.40;1.00;;;;;;5114083;28;20209;-84
2021/12/24 13:17:18;;;;;;;9.55;7.32;;;12.50;1.00;;;;;;5113591;28;20291;-81
2021/12/24 13:22:32;;;;;;;11.00;7.50;;;12.70;1.00;;;;;;5091101;28;20223;-82
2021/12/24 13:25:01;;;;;;;9.32;6.80;;;12.50;1.00;;;;;;5113368;28;20209;-80
2021/12/24 13:27:31;;;;;;;10.30;7.45;;;12.60;1.00;;;;;;5113232;28;20740;-79
2021/12/24 13:30:16;;;;;;;10.18;7.53;;;12.80;1.00;;;;;;5108336;28;20197;-81
2021/12/24 13:32:45;;;;;;;10.65;7.75;;;12.80;1.00;;;;;;5103982;28;20212;-80
2021/12/24 13:35:15;;;;;;;11.18;7.53;;;13.00;1.00;;;;;;5113377;28;20250;-85
2021/12/24 13:37:45;;;;;;;10.55;7.18;;;12.70;1.00;;;;;;5111255;28;20529;-80
2021/12/24 13:40:15;;;;;;;9.32;6.85;;;12.70;1.00;;;;;;5107057;28;20216;-79
2021/12/24 13:42:48;;;;;;;13.30;7.43;;;12.60;1.00;;;;;;5113585;28;20250;-80
2021/12/24 13:45:16;;;;;;;9.32;6.57;;;12.50;1.00;;;;;;5111093;28;20216;-80
2021/12/24 13:47:52;;;;;;;8.77;6.95;;;12.40;1.00;;;;;;5100760;28;20209;-76
2021/12/24 13:54:30;;;;;;;9.50;6.75;;;12.40;1.00;;;;;;5097972;28;20201;-75
2021/12/24 13:56:00;;;;;;;10.05;6.90;;;12.40;1.00;;;;;;5100377;28;20216;-77
2021/12/24 13:58:27;;;;;;;8.52;7.10;;;12.50;1.00;;;;;;5093271;28;20229;-81
2021/12/24 14:00:56;;;;;;;10.77;7.32;;;12.40;1.00;;;;;;5103161;28;20543;-82
2021/12/24 14:03:25;;;;;;;8.48;7.03;;;12.20;1.00;;;;;;5113686;28;20204;-83
2021/12/24 14:05:57;;;;;;;9.87;7.43;;;12.10;1.00;;;;;;5099425;28;20716;-80
2021/12/24 14:08:26;;;;;;;9.37;7.30;;;12.10;1.00;;;;;;5084823;28;20217;-80
2021/12/24 14:11:06;;;;;;;11.73;8.55;;;12.00;1.00;;;;;;5106649;27;20204;-80
2021/12/24 14:13:37;;;;;;;9.43;7.40;;;12.00;1.00;;;;;;5118764;27;20250;-81
2021/12/24 14:16:12;;;;;;;10.35;7.20;;;12.00;1.00;;;;;;5104371;28;20204;-82
2021/12/24 14:18:48;;;;;;;11.80;8.48;;;12.00;1.00;;;;;;5113083;28;20268;-78
2021/12/24 14:21:46;;;;;;;11.93;7.17;;;12.00;1.00;;;;;;5096493;28;20656;-83
2021/12/24 14:24:20;;;;;;;11.77;8.30;;;11.90;1.00;;;;;;5097473;28;20240;-80
2021/12/24 14:26:51;;;;;;;10.10;8.07;;;11.70;1.00;;;;;;5087707;28;20684;-81
2021/12/24 14:29:30;;;;;;;9.73;7.32;;;11.70;1.00;;;;;;5095414;28;20233;-80
2021/12/24 14:31:59;;;;;;;10.67;7.70;;;11.60;1.00;;;;;;5113146;27;20212;-78
2021/12/24 14:34:47;;;;;;;10.83;8.27;;;11.60;1.00;;;;;;5124848;27;20224;-77
2021/12/24 14:37:24;;;;;;;13.67;8.87;;;11.50;1.00;;;;;;5102953;27;20219;-78
2021/12/24 14:39:54;;;;;;;12.15;7.10;;;11.40;1.00;;;;;;5106223;28;20236;-78
2021/12/24 14:42:24;;;;;;;15.03;9.07;;;11.40;1.00;;;;;;5096558;28;20205;-79